Whiteville, NC

11:56 PM EST on March 04, 2015 (GMT -0500)
Columbus County Municipal | Change Station
CLOSE
Current Station
Airport
Location: Whiteville,
Elevation: 98 ft
Nearby Weather Stations

Elev 98 ft 34.28 °N, 78.71 °W | Updated 21 minutes ago

Partly Cloudy
Partly Cloudy
68 °F
Feels Like 68 °F
N
15
Wind Variable Wind from SSW
Gusts 22 mph

Today
High -- | Low -- °F
--% Chance of Precip.
Yesterday
High -- | Low -- °F
Precip. -- in
6:40 AM 6:13 PM
Full, 100% visible
Pressure 29.98 in
Visibility 10.0 miles
Clouds Scattered Clouds 6000 ft
Scattered Clouds 8000 ft
Dew Point 62 °F
Humidity 83%
Rainfall 0.05 in
Snow Depth Not available.
UV 0 out of 12
Pollen 9.70 out of 12
Air Quality Not available.
Flu Activity Not available.
METAR KCPC 050435Z AUTO 20013G19KT 10SM SCT060 SCT080 20/17 A2998 RMK AO2 T01980168

More Conditions Fewer Conditions

Pressure 29.98 in
Visibility 10.0 miles
Clouds Scattered Clouds 6000 ft
Scattered Clouds 8000 ft
Dew Point 62 °F
Humidity 83%
Rainfall 0.05 in
Snow Depth Not available.
UV 0 out of 12
Pollen 9.70 out of 12
Air Quality Not available.
Flu Activity Not available.
METAR KCPC 050435Z AUTO 20013G19KT 10SM SCT060 SCT080 20/17 A2998 RMK AO2 T01980168

More Conditions Fewer Conditions

10-Day Weather Forecast

Almanac

Astronomy

Mar. 04, 2015 Rise Set
Actual Time
Civil Twilight
Nautical Twilight
Astronomical Twilight
Moon
Length of Visible Light
Length of Day
Tomorrow will be .
, % of the Moon is Illuminated

Today's Extremes

State Highs State Lows

Community

WunderPhotos

Upload Photos

1,802,677 photos uploaded!

WunderBlogs® & News

Nearby

Air Quality

  Air Quality AQ Index Pollutant
Not available.

Snow Depth

Station Depth Elevation

Earthquake Activity

City Distance Mag. Time & Date
Minimum magnitude displayed is 2.5.

Coastal Water Temperatures

Place Temperature

Nearby Weather Stations